createdAt,value
2022-11-22T00:00:42.919Z,11.40
2022-11-22T00:03:10.206Z,11.40
2022-11-22T00:05:37.303Z,11.40
2022-11-22T00:08:04.560Z,11.40
2022-11-22T00:10:31.843Z,11.40
2022-11-22T00:12:59.042Z,11.40
2022-11-22T00:15:25.962Z,11.40
2022-11-22T00:17:52.803Z,11.40
2022-11-22T00:20:19.726Z,11.40
2022-11-22T00:22:46.594Z,11.40
2022-11-22T00:25:14.591Z,11.40
2022-11-22T00:27:41.860Z,11.40
2022-11-22T00:30:09.339Z,11.40
2022-11-22T00:32:36.556Z,11.40
2022-11-22T00:35:04.555Z,11.40
2022-11-22T00:37:31.671Z,11.40
2022-11-22T00:39:58.585Z,11.40
2022-11-22T00:42:25.679Z,11.30
2022-11-22T00:44:52.500Z,11.40
2022-11-22T00:47:19.406Z,11.40
2022-11-22T00:49:46.202Z,11.40
2022-11-22T00:52:13.213Z,11.40
2022-11-22T00:54:40.076Z,11.40
2022-11-22T00:57:06.962Z,11.40
2022-11-22T00:59:33.846Z,11.40
2022-11-22T01:02:00.711Z,11.40
2022-11-22T01:04:27.868Z,11.40
2022-11-22T01:06:54.703Z,11.40
2022-11-22T01:09:23.502Z,11.40
2022-11-22T01:11:50.878Z,11.50
2022-11-22T01:14:18.534Z,11.50
2022-11-22T01:16:45.621Z,11.40
2022-11-22T01:19:12.789Z,11.50
2022-11-22T01:21:40.026Z,11.50
2022-11-22T01:24:08.160Z,11.40
2022-11-22T01:26:35.997Z,11.50
2022-11-22T01:29:03.330Z,11.50
2022-11-22T01:31:30.388Z,11.50
2022-11-22T01:33:59.021Z,11.50
2022-11-22T01:36:27.777Z,11.50
2022-11-22T01:38:54.840Z,11.50
2022-11-22T01:41:21.696Z,11.50
2022-11-22T01:43:48.743Z,11.50
2022-11-22T01:46:33.898Z,11.50
2022-11-22T01:49:11.265Z,11.50
2022-11-22T01:51:43.680Z,11.50
2022-11-22T01:54:16.915Z,11.50
2022-11-22T01:56:51.348Z,11.50
2022-11-22T01:59:22.801Z,11.50
2022-11-22T02:01:49.764Z,11.50
2022-11-22T02:04:19.685Z,11.50
2022-11-22T02:07:08.337Z,11.50
2022-11-22T02:09:37.891Z,11.40
2022-11-22T02:12:08.576Z,11.40
2022-11-22T02:14:36.591Z,11.40
2022-11-22T02:17:03.522Z,11.40
2022-11-22T02:19:44.294Z,11.40
2022-11-22T02:22:11.281Z,11.40
2022-11-22T02:24:59.734Z,11.40
2022-11-22T02:27:26.661Z,11.40
2022-11-22T02:29:53.810Z,11.40
2022-11-22T02:32:20.948Z,11.40
2022-11-22T02:34:50.709Z,11.40
2022-11-22T02:37:32.851Z,11.40
2022-11-22T02:40:09.367Z,11.40
2022-11-22T02:42:36.579Z,11.40
2022-11-22T02:45:03.917Z,11.40
2022-11-22T02:47:30.693Z,11.40
2022-11-22T02:49:57.632Z,11.40
2022-11-22T02:52:24.470Z,11.30
2022-11-22T02:54:51.251Z,11.30
2022-11-22T02:57:18.128Z,11.30
2022-11-22T02:59:44.961Z,11.30
2022-11-22T03:02:11.746Z,11.30
2022-11-22T03:04:38.579Z,11.30
2022-11-22T03:07:05.748Z,11.20
2022-11-22T03:09:32.918Z,11.20
2022-11-22T03:12:00.504Z,11.20
2022-11-22T03:14:28.178Z,11.20
2022-11-22T03:16:54.903Z,11.20
2022-11-22T03:19:22.268Z,11.20
2022-11-22T03:21:49.920Z,11.10
2022-11-22T03:24:17.039Z,11.20
2022-11-22T03:26:49.543Z,11.20
2022-11-22T03:29:18.493Z,11.20
2022-11-22T03:31:45.333Z,11.10
2022-11-22T03:34:13.143Z,11.10
2022-11-22T03:36:39.917Z,11.10
2022-11-22T03:39:07.180Z,11.10
2022-11-22T03:41:34.034Z,11.20
2022-11-22T03:44:00.878Z,11.10
2022-11-22T03:46:27.740Z,11.10
2022-11-22T03:48:54.574Z,11.10
2022-11-22T03:51:21.630Z,11.10
2022-11-22T03:53:48.630Z,11.10
2022-11-22T03:56:15.467Z,11.10
2022-11-22T03:58:42.287Z,11.10
2022-11-22T04:01:14.921Z,11.10
2022-11-22T04:03:43.312Z,11.10
2022-11-22T04:06:10.237Z,11.10
2022-11-22T04:08:37.185Z,11.10
2022-11-22T04:11:04.124Z,11.10
2022-11-22T04:13:49.240Z,11.10
2022-11-22T04:16:16.120Z,11.10
2022-11-22T04:18:43.032Z,11.10
2022-11-22T04:21:28.670Z,11.10
2022-11-22T04:24:13.986Z,11.10
2022-11-22T04:26:40.828Z,11.10
2022-11-22T04:29:10.388Z,11.00
2022-11-22T04:31:56.414Z,11.00
2022-11-22T04:34:23.514Z,11.00
2022-11-22T04:36:50.366Z,11.00
2022-11-22T04:39:17.166Z,10.90
2022-11-22T04:41:44.031Z,11.00
2022-11-22T04:44:29.412Z,10.90
2022-11-22T04:46:56.328Z,10.90
2022-11-22T04:49:23.286Z,10.90
2022-11-22T04:52:08.670Z,10.90
2022-11-22T04:54:35.535Z,10.90
2022-11-22T04:57:02.361Z,10.90
2022-11-22T04:59:29.385Z,10.90
2022-11-22T05:01:56.438Z,10.90
2022-11-22T05:04:23.262Z,10.90
2022-11-22T05:06:51.430Z,10.80
2022-11-22T05:09:18.515Z,10.80
2022-11-22T05:11:45.391Z,10.80
2022-11-22T05:14:12.277Z,10.80
2022-11-22T05:16:39.126Z,10.80
2022-11-22T05:19:06.099Z,10.80
2022-11-22T05:21:35.780Z,10.80
2022-11-22T05:24:03.684Z,10.80
2022-11-22T05:26:34.003Z,10.80
2022-11-22T05:29:07.668Z,10.80
2022-11-22T05:31:37.016Z,10.80
2022-11-22T05:34:05.215Z,10.70
2022-11-22T05:36:34.595Z,10.80
2022-11-22T05:39:02.366Z,10.70
2022-11-22T05:41:29.418Z,10.70
2022-11-22T05:43:57.387Z,10.70
2022-11-22T05:46:28.003Z,10.70
2022-11-22T05:48:57.737Z,10.70
2022-11-22T05:51:34.240Z,10.70
2022-11-22T05:54:02.768Z,10.70
2022-11-22T05:56:29.674Z,10.70
2022-11-22T05:58:56.519Z,10.70
2022-11-22T06:01:24.841Z,10.70
2022-11-22T06:03:52.599Z,10.70
2022-11-22T06:06:19.716Z,10.70
2022-11-22T06:08:48.591Z,10.70
2022-11-22T06:11:22.651Z,10.80
2022-11-22T06:13:56.258Z,10.70
2022-11-22T06:16:23.337Z,10.70
2022-11-22T06:18:50.575Z,10.70
2022-11-22T06:21:20.599Z,10.70
2022-11-22T06:23:47.412Z,10.70
2022-11-22T06:26:18.353Z,10.70
2022-11-22T06:28:47.721Z,10.60
2022-11-22T06:31:22.321Z,10.70
2022-11-22T06:33:50.111Z,10.70
2022-11-22T06:36:26.627Z,10.70
2022-11-22T06:38:53.847Z,10.60
2022-11-22T06:41:24.474Z,10.70
2022-11-22T06:43:54.075Z,10.60
2022-11-22T06:46:24.267Z,10.60
2022-11-22T06:48:51.438Z,10.60
2022-11-22T06:51:21.865Z,10.60
2022-11-22T06:53:50.013Z,10.50
2022-11-22T06:56:20.980Z,10.60
2022-11-22T06:58:49.930Z,10.60
2022-11-22T07:01:20.821Z,10.60
2022-11-22T07:03:48.972Z,10.60
2022-11-22T07:06:19.301Z,10.60
2022-11-22T07:08:46.911Z,10.50
2022-11-22T07:11:16.701Z,10.50
2022-11-22T07:13:43.607Z,10.50
2022-11-22T07:16:14.066Z,10.60
2022-11-22T07:18:41.266Z,10.50
2022-11-22T07:21:22.519Z,10.50
2022-11-22T07:23:52.844Z,10.50
2022-11-22T07:26:22.708Z,10.60
2022-11-22T07:28:50.075Z,10.50
2022-11-22T07:31:18.439Z,10.50
2022-11-22T07:33:45.813Z,10.50
2022-11-22T07:36:19.646Z,10.40
2022-11-22T07:38:47.857Z,10.50
2022-11-22T07:41:16.144Z,10.50
2022-11-22T07:43:43.411Z,10.50
2022-11-22T07:46:20.606Z,10.50
2022-11-22T07:48:49.746Z,10.50
2022-11-22T07:51:17.075Z,10.50
2022-11-22T07:53:44.160Z,10.50
2022-11-22T07:56:11.136Z,10.50
2022-11-22T07:58:38.321Z,10.50
2022-11-22T08:01:14.794Z,10.50
2022-11-22T08:03:42.949Z,10.50
2022-11-22T08:06:12.812Z,10.50
2022-11-22T08:08:40.517Z,10.50
2022-11-22T08:11:08.043Z,10.50
2022-11-22T08:13:36.222Z,10.50
2022-11-22T08:16:08.277Z,10.50
2022-11-22T08:18:37.205Z,10.50
2022-11-22T08:21:14.507Z,10.50
2022-11-22T08:23:43.047Z,10.60
2022-11-22T08:26:14.605Z,10.60
2022-11-22T08:28:43.053Z,10.50
2022-11-22T08:31:18.994Z,10.50
2022-11-22T08:33:47.518Z,10.60
2022-11-22T08:36:14.558Z,10.60
2022-11-22T08:38:42.067Z,10.60
2022-11-22T08:41:08.947Z,10.60
2022-11-22T08:43:35.903Z,10.60
2022-11-22T08:46:03.309Z,10.60
2022-11-22T08:48:33.941Z,10.70
2022-11-22T08:51:10.316Z,10.70
2022-11-22T08:53:41.610Z,10.70
2022-11-22T08:56:12.428Z,10.70
2022-11-22T08:58:39.859Z,10.70
2022-11-22T09:01:15.617Z,10.70
2022-11-22T09:03:44.186Z,10.70
2022-11-22T09:09:35.748Z,10.80
2022-11-22T09:11:53.528Z,10.80
2022-11-22T09:14:20.443Z,10.80
2022-11-22T09:16:47.382Z,10.90
2022-11-22T09:19:14.282Z,10.80
2022-11-22T09:21:41.068Z,10.90
2022-11-22T09:24:07.975Z,10.90
2022-11-22T09:26:35.736Z,10.90
2022-11-22T09:29:03.014Z,11.00
2022-11-22T09:31:32.471Z,11.00
2022-11-22T09:33:59.400Z,11.00
2022-11-22T09:36:26.914Z,11.10
2022-11-22T09:38:56.018Z,11.10
2022-11-22T09:41:59.798Z,11.10
2022-11-22T09:44:45.065Z,11.10
2022-11-22T09:47:26.745Z,11.10
2022-11-22T09:50:34.059Z,11.10
2022-11-22T09:53:16.506Z,11.20
2022-11-22T09:55:51.808Z,11.20
2022-11-22T09:58:40.139Z,11.20
2022-11-22T10:01:41.067Z,11.20
2022-11-22T10:04:27.770Z,11.30
2022-11-22T10:07:01.478Z,11.20
2022-11-22T10:09:54.709Z,11.30
2022-11-22T10:12:58.755Z,11.30
2022-11-22T10:15:43.952Z,11.30
2022-11-22T10:18:16.688Z,11.40
2022-11-22T10:20:48.671Z,11.40
2022-11-22T10:23:26.646Z,11.40
2022-11-22T10:26:15.255Z,11.50
2022-11-22T10:28:53.580Z,11.50
2022-11-22T10:31:28.146Z,11.60
2022-11-22T10:34:21.674Z,11.50
2022-11-22T10:37:00.884Z,11.60
2022-11-22T10:40:06.633Z,11.60
2022-11-22T10:42:48.165Z,11.60
2022-11-22T10:45:28.351Z,11.60
2022-11-22T10:48:42.501Z,11.60
2022-11-22T10:51:30.451Z,11.60
2022-11-22T10:54:16.675Z,11.60
2022-11-22T10:56:53.338Z,11.60
2022-11-22T10:59:53.477Z,11.70
2022-11-22T11:02:51.478Z,11.60
2022-11-22T11:05:24.819Z,11.60
2022-11-22T11:07:56.678Z,11.60
2022-11-22T11:10:36.967Z,11.60
2022-11-22T11:13:34.294Z,11.60
2022-11-22T11:16:07.542Z,11.60
2022-11-22T11:18:49.381Z,11.60
2022-11-22T11:21:16.577Z,11.60
2022-11-22T11:23:43.425Z,11.60
2022-11-22T11:26:32.820Z,11.60
2022-11-22T11:29:18.055Z,11.70
2022-11-22T11:32:07.016Z,11.70
2022-11-22T11:34:34.370Z,11.70
2022-11-22T11:37:05.303Z,11.70
2022-11-22T11:39:34.967Z,11.70
2022-11-22T11:42:26.606Z,11.70
2022-11-22T11:44:53.898Z,11.70
2022-11-22T11:47:34.886Z,11.80
2022-11-22T11:50:02.126Z,11.80
2022-11-22T11:52:30.177Z,11.80
2022-11-22T11:55:02.331Z,11.80
2022-11-22T11:57:36.830Z,11.80
2022-11-22T12:00:21.367Z,11.80
2022-11-22T12:02:50.700Z,11.90
2022-11-22T12:05:17.532Z,11.90
2022-11-22T12:07:46.596Z,11.90
2022-11-22T12:10:56.246Z,12.00
2022-11-22T12:14:19.716Z,12.00
2022-11-22T12:16:52.186Z,12.00
2022-11-22T12:19:32.390Z,12.00
2022-11-22T12:22:48.876Z,12.00
2022-11-22T12:25:37.574Z,12.10
2022-11-22T12:28:27.285Z,12.10
2022-11-22T12:31:15.712Z,12.10
2022-11-22T12:33:50.866Z,12.10
2022-11-22T12:36:32.509Z,12.10
2022-11-22T12:39:02.896Z,12.10
2022-11-22T12:41:34.411Z,12.10
2022-11-22T12:44:07.759Z,12.10
2022-11-22T12:46:49.766Z,12.20
2022-11-22T12:49:43.322Z,12.20
2022-11-22T12:52:28.636Z,12.20
2022-11-22T12:55:23.985Z,12.20
2022-11-22T12:58:02.145Z,12.20
2022-11-22T13:00:39.739Z,12.30
2022-11-22T13:03:22.430Z,12.30
2022-11-22T13:05:57.931Z,12.30
2022-11-22T13:08:33.222Z,12.30
2022-11-22T13:11:14.936Z,12.30
2022-11-22T13:13:54.645Z,12.30
2022-11-22T13:16:21.570Z,12.30
2022-11-22T13:19:04.704Z,12.30
2022-11-22T13:21:47.424Z,12.20
2022-11-22T13:24:52.490Z,12.30
2022-11-22T13:27:33.712Z,12.30
2022-11-22T13:30:02.615Z,12.30
2022-11-22T13:32:35.232Z,12.30
2022-11-22T13:35:11.494Z,12.30
2022-11-22T13:37:44.418Z,12.30
2022-11-22T13:40:32.342Z,12.30
2022-11-22T13:43:19.711Z,12.30
2022-11-22T13:45:58.271Z,12.30
2022-11-22T13:48:40.350Z,12.30
2022-11-22T13:51:11.933Z,12.30
2022-11-22T13:53:47.942Z,12.30
2022-11-22T13:56:20.368Z,12.30
2022-11-22T13:59:13.375Z,12.30
2022-11-22T14:01:40.176Z,12.30
2022-11-22T14:04:16.064Z,12.20
2022-11-22T14:07:10.214Z,12.20
2022-11-22T14:09:54.139Z,12.20
2022-11-22T14:13:10.749Z,12.20
2022-11-22T14:15:52.638Z,12.20
2022-11-22T14:18:45.755Z,12.20
2022-11-22T14:21:29.844Z,12.10
2022-11-22T14:24:19.075Z,12.10
2022-11-22T14:27:17.436Z,12.10
2022-11-22T14:30:12.942Z,12.10
2022-11-22T14:33:04.999Z,12.00
2022-11-22T14:35:37.797Z,12.00
2022-11-22T14:38:07.931Z,12.00
2022-11-22T14:40:36.935Z,12.00
2022-11-22T14:43:34.379Z,12.00
2022-11-22T14:46:51.361Z,12.00
2022-11-22T14:49:21.670Z,12.00
2022-11-22T14:51:53.829Z,12.00
2022-11-22T14:54:45.586Z,11.90
2022-11-22T14:57:20.821Z,11.90
2022-11-22T15:00:18.031Z,11.90
2022-11-22T15:03:35.953Z,11.90
2022-11-22T15:09:21.750Z,11.90
2022-11-22T15:09:52.632Z,11.90
2022-11-22T15:12:20.386Z,11.80
2022-11-22T15:57:45.379Z,11.70
2022-11-22T16:00:28.770Z,11.70
2022-11-22T16:03:02.042Z,11.70
2022-11-22T16:06:07.120Z,11.70
2022-11-22T16:08:27.858Z,11.60
2022-11-22T16:10:59.298Z,11.60
2022-11-22T16:13:32.936Z,11.60
2022-11-22T16:16:18.604Z,11.60
2022-11-22T16:18:46.952Z,11.60
2022-11-22T16:21:16.752Z,11.60
2022-11-22T16:23:46.929Z,11.60
2022-11-22T16:26:31.181Z,11.60
2022-11-22T16:29:28.951Z,11.60
2022-11-22T16:32:06.527Z,11.60
2022-11-22T16:34:33.666Z,11.60
2022-11-22T16:37:00.836Z,11.60
2022-11-22T16:39:27.792Z,11.60
2022-11-22T16:41:54.741Z,11.60
2022-11-22T16:44:22.065Z,11.60
2022-11-22T16:46:48.971Z,11.50
2022-11-22T16:49:20.138Z,11.60
2022-11-22T16:51:50.086Z,11.50
2022-11-22T16:54:23.734Z,11.50
2022-11-22T16:56:50.528Z,11.50
2022-11-22T16:59:17.422Z,11.50
2022-11-22T17:01:44.865Z,11.50
2022-11-22T17:04:26.262Z,11.50
2022-11-22T17:06:53.598Z,11.50
2022-11-22T17:09:21.067Z,11.50
2022-11-22T17:11:48.151Z,11.40
2022-11-22T17:14:19.460Z,11.40
2022-11-22T17:16:46.528Z,11.40
2022-11-22T17:22:00.948Z,11.40
2022-11-22T17:24:27.918Z,11.40
2022-11-22T17:26:54.789Z,11.40
2022-11-22T17:29:49.396Z,11.40
2022-11-22T17:32:14.556Z,11.40
2022-11-22T17:34:41.417Z,11.40
2022-11-22T17:37:15.239Z,11.40
2022-11-22T17:39:42.123Z,11.40
2022-11-22T17:42:08.932Z,11.40
2022-11-22T17:44:35.723Z,11.30
2022-11-22T17:47:03.620Z,11.40
2022-11-22T17:49:30.687Z,11.40
2022-11-22T17:51:57.872Z,11.40
2022-11-22T17:54:24.669Z,11.30
2022-11-22T17:56:51.563Z,11.30
2022-11-22T17:59:18.435Z,11.30
2022-11-22T18:01:45.243Z,11.30
2022-11-22T18:04:12.101Z,11.30
2022-11-22T18:06:38.878Z,11.30
2022-11-22T18:09:05.669Z,11.30
2022-11-22T18:11:32.671Z,11.40
2022-11-22T18:13:59.609Z,11.30
2022-11-22T18:16:30.043Z,11.30
2022-11-22T18:18:58.412Z,11.30
2022-11-22T18:21:32.297Z,11.30
2022-11-22T18:24:00.239Z,11.30
2022-11-22T18:26:43.666Z,11.30
2022-11-22T18:32:01.807Z,11.30
2022-11-22T18:34:29.648Z,11.20
2022-11-22T18:37:04.955Z,11.20
2022-11-22T18:39:36.759Z,11.20
2022-11-22T18:42:07.914Z,11.20
2022-11-22T18:44:35.037Z,11.20
2022-11-22T18:47:01.948Z,11.20
2022-11-22T18:49:29.366Z,11.20
2022-11-22T18:51:56.650Z,11.20
2022-11-22T18:54:24.034Z,11.20
2022-11-22T18:56:51.713Z,11.20
2022-11-22T18:59:18.797Z,11.20
2022-11-22T19:01:45.969Z,11.20
2022-11-22T19:04:15.340Z,11.20
2022-11-22T19:06:43.420Z,11.20
2022-11-22T19:09:11.285Z,11.10
2022-11-22T19:11:38.599Z,11.10
2022-11-22T19:14:05.478Z,11.10
2022-11-22T19:16:32.442Z,11.10
2022-11-22T19:18:59.645Z,11.10
2022-11-22T19:21:28.504Z,11.10
2022-11-22T19:23:56.638Z,11.10
2022-11-22T19:26:26.917Z,11.20
2022-11-22T19:28:56.115Z,11.10
2022-11-22T19:31:29.505Z,11.20
2022-11-22T19:33:58.280Z,11.10
2022-11-22T19:36:32.635Z,11.10
2022-11-22T19:39:04.878Z,11.10
2022-11-22T19:41:32.675Z,11.10
2022-11-22T19:44:00.081Z,11.10
2022-11-22T19:46:27.502Z,11.20
2022-11-22T19:48:57.632Z,11.10
2022-11-22T19:51:27.098Z,11.10
2022-11-22T19:53:59.653Z,11.10
2022-11-22T19:56:32.346Z,11.10
2022-11-22T19:59:01.725Z,11.10
2022-11-22T20:01:32.057Z,11.10
2022-11-22T20:04:03.795Z,11.10
2022-11-22T20:06:32.170Z,11.10
2022-11-22T20:09:06.374Z,11.10
2022-11-22T20:11:33.302Z,11.10
2022-11-22T20:14:00.272Z,11.10
2022-11-22T20:16:30.587Z,11.10
2022-11-22T20:19:06.912Z,11.00
2022-11-22T20:21:35.494Z,11.10
2022-11-22T20:24:04.173Z,11.10
2022-11-22T20:26:33.122Z,11.10
2022-11-22T20:29:07.348Z,11.00
2022-11-22T20:31:37.146Z,11.10
2022-11-22T20:34:06.748Z,11.10
2022-11-22T20:36:35.386Z,11.00
2022-11-22T20:39:08.368Z,11.10
2022-11-22T20:41:36.549Z,11.10
2022-11-22T20:44:03.592Z,11.00
2022-11-22T20:46:30.688Z,11.10
2022-11-22T20:48:58.180Z,11.10
2022-11-22T20:51:28.920Z,11.00
2022-11-22T20:53:57.051Z,11.00
2022-11-22T20:56:24.841Z,11.00
2022-11-22T20:58:52.404Z,11.00
2022-11-22T21:01:27.178Z,11.10
2022-11-22T21:03:54.856Z,11.00
2022-11-22T21:06:23.764Z,11.00
2022-11-22T21:08:50.904Z,11.00
2022-11-22T21:11:28.645Z,11.10
2022-11-22T21:13:57.983Z,11.00
2022-11-22T21:16:30.112Z,11.00
2022-11-22T21:19:05.007Z,11.00
2022-11-22T21:21:35.650Z,11.00
2022-11-22T21:24:04.981Z,10.90
2022-11-22T21:26:32.666Z,11.00
2022-11-22T21:29:00.003Z,10.90
2022-11-22T21:31:28.064Z,11.00
2022-11-22T21:33:54.972Z,11.00
2022-11-22T21:36:22.237Z,11.00
2022-11-22T21:38:49.583Z,10.90
2022-11-22T21:44:08.613Z,11.00
2022-11-22T21:46:35.465Z,11.00
2022-11-22T21:49:02.329Z,10.90
2022-11-22T21:51:29.153Z,11.00
2022-11-22T21:54:00.650Z,10.90
2022-11-22T21:56:28.497Z,11.00
2022-11-22T21:58:55.625Z,10.90
2022-11-22T22:01:23.997Z,10.90
2022-11-22T22:03:51.411Z,10.90
2022-11-22T22:06:19.209Z,10.80
2022-11-22T22:08:46.152Z,10.90
2022-11-22T22:11:13.007Z,10.90
2022-11-22T22:13:39.939Z,10.90
2022-11-22T22:16:07.421Z,10.90
2022-11-22T22:18:37.678Z,10.90
2022-11-22T22:21:10.485Z,10.90
2022-11-22T22:23:39.400Z,10.90
2022-11-22T22:26:12.526Z,10.90
2022-11-22T22:28:40.594Z,10.90
2022-11-22T22:31:14.577Z,10.90
2022-11-22T22:33:42.523Z,10.90
2022-11-22T22:36:11.772Z,10.80
2022-11-22T22:38:38.735Z,10.80
2022-11-22T22:41:07.368Z,10.80
2022-11-22T22:43:38.203Z,10.90
2022-11-22T22:46:10.055Z,10.90
2022-11-22T22:48:36.844Z,10.90
2022-11-22T22:51:32.690Z,10.90
2022-11-22T22:54:01.161Z,10.90
2022-11-22T22:56:30.404Z,10.90
2022-11-22T22:59:00.610Z,10.90
2022-11-22T23:01:30.505Z,10.90
2022-11-22T23:04:00.251Z,10.90
2022-11-22T23:06:30.297Z,10.90
2022-11-22T23:08:57.815Z,10.90
2022-11-22T23:11:47.217Z,10.90
2022-11-22T23:14:18.020Z,10.90
2022-11-22T23:16:44.906Z,10.90
2022-11-22T23:19:12.514Z,10.90
2022-11-22T23:21:39.362Z,10.90
2022-11-22T23:24:08.043Z,10.90
2022-11-22T23:26:35.802Z,10.90
2022-11-22T23:29:03.177Z,10.90
2022-11-22T23:31:30.068Z,11.00
2022-11-22T23:34:00.321Z,10.90
2022-11-22T23:36:27.950Z,11.00
2022-11-22T23:38:54.785Z,10.90
2022-11-22T23:41:24.730Z,10.90
2022-11-22T23:43:56.938Z,10.90
2022-11-22T23:46:27.459Z,11.00
2022-11-22T23:48:57.896Z,10.90
2022-11-22T23:51:26.548Z,10.90
2022-11-22T23:53:59.838Z,10.90
2022-11-22T23:56:28.502Z,10.90
2022-11-22T23:58:58.744Z,10.90
